Picacho, New Mexico
Current Conditions -  °F | °C
As of 2:51 AM on Saturday 22 Nov 2014 (Local Time) from KROW Reporting Station
Overcast Overcast  
Wind Chill: 45°   Ceiling: 11000
Heat Index: 45°   Visibility: 10mi
Dew Point: 33°   Wind: 3mph
Humidity: 63%   Direction: 290°WNW
Pressure: 30.01"   Gusts: NA
Location:  33.41°N, 105.01°W
Report Text: KROW 220951Z AUTO 29003KT 10SM OVC110 07/01 A3001 RMK AO2 SLP126 T00720006
Loading
Personal Weather Stations






























Interactive Weather Map New forecast layout! Learn more

10-Day Weather Forecast

Advertisements
Track Severe Weather on mobile